createdAt,value
2022-07-29T00:01:58.103Z,2.63
2022-07-29T00:07:01.724Z,2.83
2022-07-29T00:12:03.756Z,2.70
2022-07-29T00:17:05.491Z,2.80
2022-07-29T00:22:07.216Z,2.63
2022-07-29T00:27:09.364Z,2.70
2022-07-29T00:32:11.182Z,2.63
2022-07-29T00:37:12.894Z,2.47
2022-07-29T00:42:14.726Z,2.25
2022-07-29T00:47:16.449Z,2.15
2022-07-29T00:52:18.227Z,2.53
2022-07-29T00:57:20.973Z,2.30
2022-07-29T01:02:22.884Z,2.40
2022-07-29T01:07:26.480Z,2.22
2022-07-29T01:12:30.282Z,2.00
2022-07-29T01:22:36.176Z,3.05
2022-07-29T01:27:40.862Z,2.78
2022-07-29T01:32:51.071Z,2.40
2022-07-29T01:37:58.374Z,2.15
2022-07-29T01:43:08.285Z,2.38
2022-07-29T01:48:30.859Z,2.35
2022-07-29T01:53:43.438Z,2.88
2022-07-29T01:58:48.164Z,2.22
2022-07-29T02:03:51.155Z,2.80
2022-07-29T02:08:54.665Z,2.93
2022-07-29T02:13:58.771Z,2.30
2022-07-29T02:19:03.784Z,2.50
2022-07-29T02:24:06.135Z,2.20
2022-07-29T02:29:09.508Z,2.72
2022-07-29T02:34:12.830Z,2.90
2022-07-29T02:39:16.720Z,2.30
2022-07-29T02:44:20.922Z,2.33
2022-07-29T02:49:32.894Z,2.08
2022-07-29T02:54:46.924Z,2.60
2022-07-29T02:59:52.433Z,2.75
2022-07-29T03:04:56.398Z,2.20
2022-07-29T03:10:00.669Z,1.60
2022-07-29T03:15:03.408Z,2.22
2022-07-29T03:20:05.969Z,2.00
2022-07-29T03:25:11.821Z,2.33
2022-07-29T03:30:18.415Z,2.75
2022-07-29T03:35:23.806Z,2.17
2022-07-29T03:40:32.718Z,2.47
2022-07-29T03:45:35.795Z,2.40
2022-07-29T03:50:37.534Z,2.50
2022-07-29T03:55:45.622Z,2.20
2022-07-29T04:00:48.462Z,2.42
2022-07-29T04:06:06.998Z,2.17
2022-07-29T04:11:08.749Z,2.20
2022-07-29T04:16:10.902Z,2.63
2022-07-29T04:21:12.705Z,2.10
2022-07-29T04:26:14.920Z,1.80
2022-07-29T04:31:16.729Z,1.73
2022-07-29T04:36:28.701Z,1.58
2022-07-29T04:41:32.981Z,1.67
2022-07-29T04:51:37.566Z,2.35
2022-07-29T04:56:39.297Z,2.40
2022-07-29T05:01:41.112Z,2.22
2022-07-29T05:06:42.990Z,2.38
2022-07-29T05:11:44.868Z,2.15
2022-07-29T05:16:46.681Z,1.83
2022-07-29T05:21:48.785Z,1.80
2022-07-29T05:26:50.527Z,1.90
2022-07-29T05:31:53.795Z,2.20
2022-07-29T05:36:55.558Z,2.42
2022-07-29T05:41:57.358Z,1.60
2022-07-29T05:46:59.068Z,2.00
2022-07-29T05:52:00.867Z,1.95
2022-07-29T05:57:02.945Z,1.90
2022-07-29T06:02:06.028Z,1.80
2022-07-29T06:07:07.792Z,1.60
2022-07-29T06:12:11.656Z,1.60
2022-07-29T06:17:13.359Z,1.50
2022-07-29T06:22:17.430Z,1.48
2022-07-29T06:27:19.162Z,1.23
2022-07-29T06:32:22.782Z,1.30
2022-07-29T06:37:25.338Z,1.73
2022-07-29T06:42:28.391Z,1.60
2022-07-29T06:47:30.098Z,1.27
2022-07-29T06:52:31.793Z,1.58
2022-07-29T06:57:33.792Z,1.20
2022-07-29T07:02:35.618Z,1.50
2022-07-29T07:07:37.474Z,1.10
2022-07-29T07:12:39.214Z,1.10
2022-07-29T07:17:40.953Z,1.35
2022-07-29T07:22:42.897Z,1.60
2022-07-29T07:27:46.029Z,1.58
2022-07-29T07:32:47.959Z,1.48
2022-07-29T07:37:49.779Z,1.60
2022-07-29T07:42:51.593Z,1.45
2022-07-29T07:47:53.326Z,1.33
2022-07-29T07:52:59.286Z,1.30
2022-07-29T07:58:01.038Z,1.40
2022-07-29T08:03:03.407Z,1.40
2022-07-29T08:08:18.873Z,1.60
2022-07-29T08:13:22.944Z,1.20
2022-07-29T08:18:29.670Z,1.67
2022-07-29T08:23:46.191Z,1.70
2022-07-29T08:28:51.750Z,1.50
2022-07-29T08:33:53.485Z,1.52
2022-07-29T08:38:55.267Z,1.80
2022-07-29T08:43:57.170Z,1.60
2022-07-29T08:48:59.091Z,1.67
2022-07-29T08:54:01.363Z,1.60
2022-07-29T08:59:09.048Z,1.63
2022-07-29T09:04:14.705Z,1.55
2022-07-29T09:14:18.166Z,1.40
2022-07-29T09:19:23.834Z,1.50
2022-07-29T09:24:27.917Z,1.90
2022-07-29T09:29:33.318Z,2.55
2022-07-29T09:34:38.333Z,1.73
2022-07-29T09:39:46.424Z,1.45
2022-07-29T09:44:50.911Z,1.50
2022-07-29T09:49:55.653Z,1.75
2022-07-29T09:55:13.853Z,1.65
2022-07-29T10:05:24.839Z,1.83
2022-07-29T10:10:28.725Z,1.55
2022-07-29T10:15:33.116Z,1.70
2022-07-29T10:20:35.394Z,2.00
2022-07-29T10:25:37.369Z,2.00
2022-07-29T10:30:40.986Z,2.08
2022-07-29T10:35:54.726Z,1.90
2022-07-29T10:41:27.325Z,2.20
2022-07-29T10:46:37.418Z,2.00
2022-07-29T10:52:00.863Z,2.15
2022-07-29T10:57:53.733Z,1.70
2022-07-29T11:02:57.367Z,2.00
2022-07-29T11:08:20.368Z,1.90
2022-07-29T11:13:44.297Z,2.10
2022-07-29T11:19:14.071Z,1.80
2022-07-29T11:24:28.834Z,2.05
2022-07-29T11:29:58.540Z,2.15
2022-07-29T11:35:17.280Z,1.90
2022-07-29T11:40:20.160Z,1.77
2022-07-29T11:45:44.796Z,2.15
2022-07-29T11:50:48.346Z,2.42
2022-07-29T11:55:56.323Z,1.80
2022-07-29T12:01:04.123Z,1.95
2022-07-29T12:06:17.600Z,2.13
2022-07-29T12:11:22.971Z,2.13
2022-07-29T12:16:36.413Z,2.10
2022-07-29T12:21:57.022Z,2.28
2022-07-29T12:27:02.375Z,2.10
2022-07-29T12:32:07.154Z,2.45
2022-07-29T12:37:17.438Z,1.90
2022-07-29T12:43:03.854Z,2.10
2022-07-29T12:48:09.411Z,1.90
2022-07-29T12:53:13.268Z,2.00
2022-07-29T12:58:15.507Z,2.00
2022-07-29T13:08:22.225Z,2.05
2022-07-29T13:13:24.616Z,1.90
2022-07-29T13:18:30.371Z,2.05
2022-07-29T13:23:32.147Z,2.20
2022-07-29T13:28:40.885Z,2.13
2022-07-29T13:33:46.096Z,2.10
2022-07-29T13:38:47.864Z,1.93
2022-07-29T13:43:50.097Z,1.87
2022-07-29T13:48:52.366Z,1.75
2022-07-29T13:53:54.225Z,2.08
2022-07-29T13:58:56.236Z,2.07
2022-07-29T14:03:58.015Z,2.05
2022-07-29T14:09:00.011Z,2.00
2022-07-29T14:14:02.001Z,2.03
2022-07-29T14:19:04.117Z,2.13
2022-07-29T14:24:17.059Z,2.47
2022-07-29T14:29:24.090Z,1.90
2022-07-29T14:34:39.981Z,2.22
2022-07-29T14:39:43.281Z,2.17
2022-07-29T14:44:45.211Z,2.20
2022-07-29T14:49:48.758Z,2.22
2022-07-29T14:54:50.483Z,2.15
2022-07-29T14:59:52.272Z,2.20
2022-07-29T15:04:54.083Z,2.00
2022-07-29T15:09:59.532Z,2.20
2022-07-29T15:15:01.605Z,2.47
2022-07-29T15:20:06.224Z,2.58
2022-07-29T15:25:08.903Z,2.42
2022-07-29T15:30:11.775Z,2.03
2022-07-29T15:35:33.560Z,2.22
2022-07-29T15:40:44.119Z,1.90
2022-07-29T15:46:06.016Z,2.10
2022-07-29T15:51:07.917Z,2.28
2022-07-29T15:56:09.766Z,2.55
2022-07-29T16:01:12.125Z,1.90
2022-07-29T16:06:14.536Z,2.00
2022-07-29T16:11:16.364Z,4.43
2022-07-29T16:16:20.871Z,5.03
2022-07-29T16:21:25.593Z,4.70
2022-07-29T16:26:27.933Z,4.65
2022-07-29T16:31:29.720Z,3.97
2022-07-29T16:36:31.488Z,4.80
2022-07-29T16:41:33.573Z,3.67
2022-07-29T16:46:37.327Z,4.78
2022-07-29T16:51:40.763Z,4.10
2022-07-29T16:56:44.436Z,4.40
2022-07-29T17:01:46.225Z,4.20
2022-07-29T17:06:49.520Z,4.25
2022-07-29T17:11:55.070Z,3.70
2022-07-29T17:17:02.521Z,3.88
2022-07-29T17:22:15.585Z,3.67
2022-07-29T17:27:20.461Z,3.42
2022-07-29T17:32:22.536Z,4.18
2022-07-29T17:37:24.272Z,3.42
2022-07-29T17:42:26.032Z,4.35
2022-07-29T17:47:27.769Z,3.20
2022-07-29T17:52:29.678Z,3.40
2022-07-29T17:57:31.412Z,3.20
2022-07-29T18:02:33.207Z,4.40
2022-07-29T18:07:35.105Z,2.70
2022-07-29T18:12:36.897Z,3.83
2022-07-29T18:17:56.902Z,3.58
2022-07-29T18:22:59.834Z,3.20
2022-07-29T18:28:02.077Z,2.45
2022-07-29T18:33:20.703Z,3.55
2022-07-29T18:38:23.376Z,3.97
2022-07-29T18:43:25.091Z,3.90
2022-07-29T18:48:27.116Z,3.72
2022-07-29T18:53:29.003Z,4.35
2022-07-29T18:58:32.901Z,4.03
2022-07-29T19:08:36.529Z,4.10
2022-07-29T19:13:38.562Z,4.10
2022-07-29T19:18:40.826Z,3.35
2022-07-29T19:24:05.243Z,3.65
2022-07-29T19:29:04.743Z,3.80
2022-07-29T19:34:07.791Z,4.20
2022-07-29T19:39:09.677Z,3.70
2022-07-29T19:44:11.566Z,3.90
2022-07-29T19:49:13.688Z,4.15
2022-07-29T19:54:18.111Z,5.32
2022-07-29T19:59:20.243Z,3.95
2022-07-29T20:04:26.366Z,3.72
2022-07-29T20:09:28.324Z,4.43
2022-07-29T20:14:30.385Z,6.03
2022-07-29T20:19:33.143Z,5.82
2022-07-29T20:24:35.192Z,4.97
2022-07-29T20:29:37.848Z,4.30
2022-07-29T20:34:41.424Z,5.15
2022-07-29T20:39:43.194Z,6.80
2022-07-29T20:44:46.069Z,6.97
2022-07-29T20:49:48.042Z,6.57
2022-07-29T20:54:49.860Z,5.28
2022-07-29T20:59:51.645Z,6.00
2022-07-29T21:04:53.554Z,6.20
2022-07-29T21:09:55.338Z,5.38
2022-07-29T21:14:57.786Z,4.95
2022-07-29T21:19:59.527Z,4.97
2022-07-29T21:25:01.641Z,4.65
2022-07-29T21:30:03.990Z,4.03
2022-07-29T21:35:11.299Z,6.22
2022-07-29T21:40:23.973Z,4.20
2022-07-29T21:45:25.795Z,4.60
2022-07-29T21:50:27.527Z,4.00
2022-07-29T21:55:29.281Z,3.88
2022-07-29T22:00:33.864Z,3.17
2022-07-29T22:05:35.629Z,4.45
2022-07-29T22:10:37.520Z,4.35
2022-07-29T22:15:42.000Z,3.80
2022-07-29T22:20:45.892Z,3.47
2022-07-29T22:25:47.660Z,3.90
2022-07-29T22:30:49.432Z,3.80
2022-07-29T22:35:51.238Z,5.00
2022-07-29T22:40:52.969Z,5.18
2022-07-29T22:45:54.886Z,4.47
2022-07-29T22:50:56.647Z,3.75
2022-07-29T22:55:58.728Z,3.97
2022-07-29T23:01:00.530Z,4.07
2022-07-29T23:06:02.398Z,4.38
2022-07-29T23:11:04.210Z,6.47
2022-07-29T23:16:06.043Z,6.20
2022-07-29T23:21:07.817Z,6.20
2022-07-29T23:26:10.895Z,5.35
2022-07-29T23:31:13.604Z,5.68
2022-07-29T23:36:15.466Z,4.30
2022-07-29T23:41:17.257Z,4.50
2022-07-29T23:46:24.005Z,5.40
2022-07-29T23:51:26.128Z,4.40
2022-07-29T23:56:27.880Z,4.32
